createdAt,value
2023-03-31T00:01:27.010Z,19.73
2023-03-31T00:04:05.459Z,13.97
2023-03-31T00:06:38.082Z,10.27
2023-03-31T00:09:06.365Z,9.73
2023-03-31T00:11:35.749Z,9.47
2023-03-31T00:14:03.684Z,9.40
2023-03-31T00:16:31.580Z,10.63
2023-03-31T00:19:01.850Z,14.10
2023-03-31T00:21:33.824Z,13.40
2023-03-31T00:24:04.011Z,12.37
2023-03-31T00:26:32.519Z,19.53
2023-03-31T00:29:02.263Z,16.00
2023-03-31T00:31:30.567Z,21.37
2023-03-31T00:33:59.115Z,16.90
2023-03-31T00:36:28.663Z,20.13
2023-03-31T00:38:59.108Z,19.27
2023-03-31T00:41:28.759Z,19.63
2023-03-31T00:44:09.124Z,21.83
2023-03-31T00:46:43.258Z,22.43
2023-03-31T00:49:18.026Z,27.53
2023-03-31T00:51:46.755Z,21.97
2023-03-31T00:54:15.317Z,25.10
2023-03-31T00:56:48.374Z,24.27
2023-03-31T00:59:18.694Z,21.10
2023-03-31T01:01:50.499Z,18.63
2023-03-31T01:04:22.434Z,23.83
2023-03-31T01:07:00.824Z,19.73
2023-03-31T01:09:34.983Z,15.73
2023-03-31T01:12:05.702Z,15.90
2023-03-31T01:14:35.614Z,15.23
2023-03-31T01:17:05.264Z,19.30
2023-03-31T01:19:52.846Z,15.57
2023-03-31T01:23:03.136Z,15.27
2023-03-31T01:26:20.620Z,20.93
2023-03-31T01:28:57.123Z,21.03
2023-03-31T01:31:53.214Z,14.67
2023-03-31T01:35:02.345Z,16.17
2023-03-31T01:38:03.052Z,16.17
2023-03-31T01:40:51.487Z,15.00
2023-03-31T01:43:24.299Z,15.17
2023-03-31T01:45:57.885Z,18.63
2023-03-31T01:48:36.724Z,17.23
2023-03-31T01:51:08.439Z,17.70
2023-03-31T01:53:45.738Z,17.57
2023-03-31T01:56:21.155Z,16.90
2023-03-31T01:58:54.245Z,13.13
2023-03-31T02:01:26.356Z,13.00
2023-03-31T02:03:57.752Z,19.57
2023-03-31T02:06:31.905Z,23.07
2023-03-31T02:09:03.654Z,14.97
2023-03-31T02:11:34.978Z,18.10
2023-03-31T02:14:09.316Z,16.57
2023-03-31T02:16:41.750Z,22.93
2023-03-31T02:19:13.972Z,14.13
2023-03-31T02:21:42.412Z,18.27
2023-03-31T02:24:14.935Z,22.53
2023-03-31T02:26:51.037Z,18.67
2023-03-31T02:29:19.677Z,18.40
2023-03-31T02:31:50.585Z,16.83
2023-03-31T02:34:18.807Z,17.23
2023-03-31T02:36:47.379Z,19.17
2023-03-31T02:39:20.140Z,15.73
2023-03-31T02:41:49.388Z,13.70
2023-03-31T02:44:18.544Z,15.83
2023-03-31T02:46:47.912Z,14.73
2023-03-31T02:49:18.066Z,14.23
2023-03-31T02:52:04.591Z,20.60
2023-03-31T02:54:58.052Z,14.60
2023-03-31T02:57:51.707Z,12.60
2023-03-31T03:00:28.261Z,13.23
2023-03-31T03:03:07.956Z,18.77
2023-03-31T03:05:45.691Z,19.87
2023-03-31T03:08:44.280Z,16.23
2023-03-31T03:11:19.497Z,14.80
2023-03-31T03:13:53.678Z,15.03
2023-03-31T03:16:25.618Z,22.30
2023-03-31T03:18:59.418Z,19.47
2023-03-31T03:21:27.990Z,14.37
2023-03-31T03:23:55.833Z,17.17
2023-03-31T03:26:27.945Z,19.70
2023-03-31T03:28:58.138Z,14.27
2023-03-31T03:31:26.566Z,12.97
2023-03-31T03:33:54.830Z,16.43
2023-03-31T03:36:23.706Z,15.60
2023-03-31T03:38:51.670Z,15.83
2023-03-31T03:41:19.561Z,17.17
2023-03-31T03:43:47.348Z,14.97
2023-03-31T03:46:16.562Z,20.70
2023-03-31T03:48:44.444Z,14.90
2023-03-31T03:51:12.251Z,14.00
2023-03-31T03:53:40.096Z,14.53
2023-03-31T03:56:08.246Z,15.20
2023-03-31T03:58:36.508Z,12.47
2023-03-31T04:01:04.724Z,15.33
2023-03-31T04:03:34.004Z,14.83
2023-03-31T04:06:01.940Z,14.20
2023-03-31T04:08:29.849Z,15.93
2023-03-31T04:10:57.762Z,16.17
2023-03-31T04:13:25.857Z,17.50
2023-03-31T04:15:53.805Z,16.47
2023-03-31T04:18:23.693Z,14.40
2023-03-31T04:21:04.019Z,17.37
2023-03-31T04:23:32.392Z,18.87
2023-03-31T04:26:00.790Z,17.20
2023-03-31T04:28:34.583Z,18.07
2023-03-31T04:31:06.140Z,17.23
2023-03-31T04:33:38.567Z,18.17
2023-03-31T04:36:17.560Z,14.17
2023-03-31T04:38:46.710Z,16.43
2023-03-31T04:41:14.568Z,15.63
2023-03-31T04:43:42.878Z,14.33
2023-03-31T04:46:10.830Z,16.80
2023-03-31T04:48:39.849Z,16.67
2023-03-31T04:51:10.540Z,14.03
2023-03-31T04:53:38.404Z,20.53
2023-03-31T04:56:07.643Z,17.90
2023-03-31T04:58:36.054Z,17.07
2023-03-31T05:01:06.414Z,17.90
2023-03-31T05:03:34.723Z,21.27
2023-03-31T05:06:02.737Z,18.33
2023-03-31T05:08:32.022Z,20.87
2023-03-31T05:10:59.883Z,20.57
2023-03-31T05:13:27.693Z,22.60
2023-03-31T05:15:55.780Z,17.97
2023-03-31T05:18:23.585Z,19.13
2023-03-31T05:20:51.537Z,18.00
2023-03-31T05:23:19.316Z,23.27
2023-03-31T05:25:50.029Z,20.33
2023-03-31T05:28:17.885Z,19.43
2023-03-31T05:30:45.720Z,24.27
2023-03-31T05:33:13.775Z,20.87
2023-03-31T05:35:41.676Z,21.23
2023-03-31T05:38:09.558Z,19.27
2023-03-31T05:40:37.493Z,22.70
2023-03-31T05:43:06.659Z,23.37
2023-03-31T05:45:34.876Z,24.67
2023-03-31T05:48:02.991Z,18.87
2023-03-31T05:50:30.907Z,20.80
2023-03-31T05:52:59.695Z,22.43
2023-03-31T05:55:27.589Z,23.37
2023-03-31T05:57:55.521Z,18.67
2023-03-31T06:00:25.111Z,18.63
2023-03-31T06:02:53.098Z,20.10
2023-03-31T06:05:22.875Z,19.80
2023-03-31T06:07:51.470Z,19.27
2023-03-31T06:10:19.374Z,19.27
2023-03-31T06:12:47.700Z,22.43
2023-03-31T06:15:15.871Z,24.20
2023-03-31T06:17:45.203Z,18.37
2023-03-31T06:20:27.297Z,19.23
2023-03-31T06:22:56.096Z,21.63
2023-03-31T06:25:24.000Z,20.33
2023-03-31T06:27:51.850Z,19.63
2023-03-31T06:30:19.992Z,19.73
2023-03-31T06:32:49.294Z,20.07
2023-03-31T06:35:18.094Z,21.17
2023-03-31T06:37:45.948Z,17.03
2023-03-31T06:40:14.227Z,17.57
2023-03-31T06:42:42.061Z,19.07
2023-03-31T06:45:10.741Z,21.87
2023-03-31T06:47:38.831Z,24.07
2023-03-31T06:50:10.457Z,21.33
2023-03-31T06:52:40.904Z,19.27
2023-03-31T06:55:09.817Z,18.20
2023-03-31T06:57:38.124Z,20.83
2023-03-31T07:00:07.847Z,18.07
2023-03-31T07:02:37.171Z,17.17
2023-03-31T07:05:05.533Z,15.23
2023-03-31T07:07:36.365Z,17.47
2023-03-31T07:10:04.571Z,18.97
2023-03-31T07:12:33.972Z,16.63
2023-03-31T07:15:01.900Z,16.03
2023-03-31T07:17:30.015Z,15.07
2023-03-31T07:19:57.896Z,17.33
2023-03-31T07:22:26.152Z,14.43
2023-03-31T07:24:55.482Z,16.40
2023-03-31T07:27:26.094Z,13.60
2023-03-31T07:29:55.040Z,18.53
2023-03-31T07:32:23.474Z,15.87
2023-03-31T07:34:51.685Z,12.17
2023-03-31T07:37:19.609Z,17.93
2023-03-31T07:39:47.434Z,16.30
2023-03-31T07:42:16.561Z,16.13
2023-03-31T07:44:44.526Z,17.40
2023-03-31T07:47:12.339Z,14.33
2023-03-31T07:49:40.241Z,17.07
2023-03-31T07:52:08.083Z,14.50
2023-03-31T07:54:36.125Z,15.37
2023-03-31T07:57:04.928Z,13.47
2023-03-31T07:59:34.322Z,16.23
2023-03-31T08:02:02.353Z,14.27
2023-03-31T08:04:30.505Z,17.93
2023-03-31T08:06:58.615Z,15.43
2023-03-31T08:09:27.124Z,15.00
2023-03-31T08:11:55.024Z,13.97
2023-03-31T08:14:34.146Z,12.93
2023-03-31T08:17:09.576Z,13.67
2023-03-31T08:19:38.151Z,14.00
2023-03-31T08:22:08.518Z,17.57
2023-03-31T08:24:36.369Z,14.60
2023-03-31T08:27:04.457Z,17.90
2023-03-31T08:29:32.617Z,14.53
2023-03-31T08:32:00.518Z,11.57
2023-03-31T08:34:29.938Z,12.30
2023-03-31T08:36:57.730Z,15.07
2023-03-31T08:39:25.750Z,14.80
2023-03-31T08:42:01.130Z,12.03
2023-03-31T08:44:36.634Z,11.57
2023-03-31T08:47:07.990Z,12.60
2023-03-31T08:49:42.357Z,11.83
2023-03-31T08:52:15.571Z,10.00
2023-03-31T08:54:49.246Z,10.77
2023-03-31T08:57:21.572Z,8.90
2023-03-31T08:59:50.991Z,10.93
2023-03-31T09:02:24.515Z,14.37
2023-03-31T09:05:11.810Z,8.83
2023-03-31T09:07:49.831Z,11.97
2023-03-31T09:10:32.217Z,11.27
2023-03-31T09:13:07.875Z,11.20
2023-03-31T09:15:41.590Z,8.23
2023-03-31T09:18:19.524Z,12.47
2023-03-31T09:20:52.564Z,9.07
2023-03-31T09:23:27.244Z,9.70
2023-03-31T09:25:57.650Z,9.27
2023-03-31T09:28:31.520Z,12.73
2023-03-31T09:31:00.817Z,9.50
2023-03-31T09:33:32.057Z,10.03
2023-03-31T09:36:02.981Z,8.00
2023-03-31T09:38:31.362Z,9.33
2023-03-31T09:41:00.008Z,7.70
2023-03-31T09:43:29.967Z,8.20
2023-03-31T09:46:09.354Z,8.67
2023-03-31T09:48:53.028Z,7.30
2023-03-31T09:51:29.757Z,8.30
2023-03-31T09:54:03.588Z,7.03
2023-03-31T09:56:49.105Z,5.07
2023-03-31T09:59:19.772Z,7.00
2023-03-31T10:01:50.370Z,6.80
2023-03-31T10:04:23.348Z,10.27
2023-03-31T10:06:53.757Z,5.37
2023-03-31T10:09:23.183Z,5.53
2023-03-31T10:11:57.526Z,10.93
2023-03-31T10:14:39.308Z,9.87
2023-03-31T10:17:07.650Z,5.97
2023-03-31T10:19:37.680Z,6.23
2023-03-31T10:22:15.456Z,5.80
2023-03-31T10:24:44.933Z,6.40
2023-03-31T10:27:22.787Z,5.10
2023-03-31T10:29:53.904Z,8.67
2023-03-31T10:32:28.624Z,6.40
2023-03-31T10:34:58.011Z,5.07
2023-03-31T10:37:29.387Z,5.57
2023-03-31T10:40:05.766Z,5.80
2023-03-31T10:42:34.055Z,5.40
2023-03-31T10:45:36.614Z,6.13
2023-03-31T10:48:17.712Z,6.70
2023-03-31T10:50:45.986Z,6.13
2023-03-31T10:53:16.899Z,7.30
2023-03-31T10:55:55.453Z,6.27
2023-03-31T10:58:35.138Z,8.27
2023-03-31T11:01:15.326Z,6.03
2023-03-31T11:03:56.793Z,5.60
2023-03-31T11:06:31.068Z,3.53
2023-03-31T11:09:13.622Z,5.60
2023-03-31T11:12:00.285Z,3.77
2023-03-31T11:14:41.688Z,5.70
2023-03-31T11:17:23.241Z,4.67
2023-03-31T11:20:01.260Z,6.67
2023-03-31T11:22:35.777Z,3.70
2023-03-31T11:25:17.709Z,4.17
2023-03-31T11:28:07.034Z,4.23
2023-03-31T11:30:39.686Z,5.90
2023-03-31T11:33:37.145Z,7.00
2023-03-31T11:36:18.915Z,3.93
2023-03-31T11:39:00.068Z,4.60
2023-03-31T11:41:37.989Z,3.30
2023-03-31T11:44:07.471Z,4.90
2023-03-31T11:46:42.659Z,3.90
2023-03-31T11:49:18.678Z,4.70
2023-03-31T11:51:52.945Z,6.53
2023-03-31T11:54:26.771Z,4.67
2023-03-31T11:56:57.260Z,4.27
2023-03-31T11:59:29.906Z,4.23
2023-03-31T12:02:05.848Z,2.87
2023-03-31T12:04:37.973Z,5.67
2023-03-31T12:07:24.232Z,10.70
2023-03-31T12:10:03.202Z,5.23
2023-03-31T12:12:35.928Z,5.03
2023-03-31T12:15:13.925Z,6.00
2023-03-31T12:17:44.504Z,3.10
2023-03-31T12:20:18.757Z,6.47
2023-03-31T12:22:49.077Z,3.67
2023-03-31T12:25:22.821Z,13.90
2023-03-31T12:27:54.529Z,15.30
2023-03-31T12:30:31.555Z,3.60
2023-03-31T12:33:06.437Z,4.40
2023-03-31T12:35:46.480Z,37.73
2023-03-31T12:38:29.805Z,6.53
2023-03-31T12:41:04.999Z,3.67
2023-03-31T12:43:56.410Z,17.67
2023-03-31T12:46:44.718Z,3.03
2023-03-31T12:49:23.895Z,4.47
2023-03-31T12:52:00.892Z,2.77
2023-03-31T12:54:40.984Z,3.10
2023-03-31T12:57:20.379Z,3.27
2023-03-31T13:00:24.716Z,4.97
2023-03-31T13:03:33.848Z,4.53
2023-03-31T13:06:01.818Z,4.97
2023-03-31T13:08:52.669Z,3.33
2023-03-31T13:11:22.860Z,3.30
2023-03-31T13:14:01.084Z,3.37
2023-03-31T13:16:31.170Z,3.37
2023-03-31T13:18:59.414Z,3.77
2023-03-31T13:21:27.940Z,4.43
2023-03-31T13:24:01.282Z,2.30
2023-03-31T13:26:47.290Z,3.53
2023-03-31T13:29:25.164Z,7.70
2023-03-31T13:32:26.235Z,3.83
2023-03-31T13:35:00.417Z,3.33
2023-03-31T13:37:54.410Z,3.10
2023-03-31T13:41:04.596Z,3.07
2023-03-31T13:43:53.725Z,2.77
2023-03-31T13:47:00.424Z,3.67
2023-03-31T13:49:54.133Z,3.30
2023-03-31T13:52:37.637Z,3.60
2023-03-31T13:55:35.720Z,3.50
2023-03-31T13:58:35.479Z,3.07
2023-03-31T14:01:37.907Z,2.47
2023-03-31T14:04:26.253Z,3.70
2023-03-31T14:07:00.142Z,3.10
2023-03-31T14:09:32.602Z,4.23
2023-03-31T14:12:00.779Z,4.50
2023-03-31T14:14:29.827Z,4.00
2023-03-31T14:17:01.093Z,3.60
2023-03-31T14:19:57.528Z,5.73
2023-03-31T14:22:40.669Z,8.48
2023-03-31T14:25:17.142Z,4.47
2023-03-31T14:27:58.361Z,5.03
2023-03-31T14:30:38.479Z,4.40
2023-03-31T14:33:19.863Z,4.50
2023-03-31T14:35:57.867Z,2.93
2023-03-31T14:38:29.940Z,3.83
2023-03-31T14:41:00.917Z,5.93
2023-03-31T14:43:33.441Z,3.20
2023-03-31T14:46:02.810Z,5.57
2023-03-31T14:48:34.348Z,5.03
2023-03-31T14:51:04.254Z,6.70
2023-03-31T14:53:36.934Z,3.43
2023-03-31T14:56:08.395Z,7.53
2023-03-31T14:58:39.482Z,7.27
2023-03-31T15:01:09.800Z,6.33
2023-03-31T15:03:41.543Z,7.33
2023-03-31T15:06:11.971Z,3.20
2023-03-31T15:08:42.127Z,6.10
2023-03-31T15:11:17.146Z,5.30
2023-03-31T15:14:03.582Z,3.90
2023-03-31T15:16:37.754Z,3.50
2023-03-31T15:19:12.311Z,5.20
2023-03-31T15:21:40.830Z,10.03
2023-03-31T15:24:13.178Z,5.73
2023-03-31T15:26:46.772Z,4.80
2023-03-31T15:29:21.660Z,6.30
2023-03-31T15:31:50.080Z,6.90
2023-03-31T15:34:24.640Z,4.53
2023-03-31T15:36:55.700Z,4.50
2023-03-31T15:39:27.473Z,3.50
2023-03-31T15:41:56.513Z,3.70
2023-03-31T15:44:37.665Z,4.37
2023-03-31T15:47:14.793Z,4.23
2023-03-31T15:49:50.689Z,3.30
2023-03-31T15:52:28.355Z,5.17
2023-03-31T15:54:58.344Z,11.67
2023-03-31T15:57:34.304Z,4.30
2023-03-31T16:00:07.021Z,4.07
2023-03-31T16:02:46.334Z,3.17
2023-03-31T16:05:32.400Z,2.60
2023-03-31T16:08:04.008Z,3.37
2023-03-31T16:10:35.235Z,4.50
2023-03-31T16:13:07.556Z,2.70
2023-03-31T16:15:38.083Z,2.90
2023-03-31T16:18:10.650Z,3.57
2023-03-31T16:20:43.023Z,3.47
2023-03-31T16:23:17.144Z,4.63
2023-03-31T16:25:47.330Z,5.33
2023-03-31T16:28:19.020Z,5.60
2023-03-31T16:30:48.307Z,3.37
2023-03-31T16:33:18.629Z,2.50
2023-03-31T16:35:50.932Z,4.50
2023-03-31T16:38:19.340Z,3.57
2023-03-31T16:40:50.442Z,2.80
2023-03-31T16:43:20.614Z,3.13
2023-03-31T16:45:49.832Z,3.33
2023-03-31T16:48:18.892Z,3.80
2023-03-31T16:50:49.257Z,3.20
2023-03-31T16:53:19.697Z,3.67
2023-03-31T16:55:49.517Z,3.23
2023-03-31T16:58:17.882Z,3.10
2023-03-31T17:00:46.512Z,3.43
2023-03-31T17:03:15.662Z,3.17
2023-03-31T17:05:45.357Z,4.67
2023-03-31T17:08:15.052Z,3.80
2023-03-31T17:10:43.541Z,3.77
2023-03-31T17:13:12.807Z,3.23
2023-03-31T17:15:40.691Z,4.03
2023-03-31T17:18:08.772Z,3.80
2023-03-31T17:20:37.023Z,4.17
2023-03-31T17:23:05.108Z,3.97
2023-03-31T17:25:34.400Z,3.37
2023-03-31T17:28:02.680Z,2.77
2023-03-31T17:30:34.107Z,4.50
2023-03-31T17:33:02.026Z,3.03
2023-03-31T17:35:30.561Z,3.53
2023-03-31T17:37:59.569Z,5.23
2023-03-31T17:40:28.108Z,6.83
2023-03-31T17:42:56.130Z,5.90
2023-03-31T17:45:24.000Z,7.87
2023-03-31T17:47:53.258Z,5.20
2023-03-31T17:50:21.175Z,4.90
2023-03-31T17:52:49.073Z,5.50
2023-03-31T17:55:17.175Z,4.63
2023-03-31T17:57:45.045Z,5.40
2023-03-31T18:00:15.973Z,5.47
2023-03-31T18:02:44.549Z,6.03
2023-03-31T18:05:15.151Z,5.67
2023-03-31T18:07:44.271Z,6.20
2023-03-31T18:10:12.180Z,6.53
2023-03-31T18:12:40.089Z,6.10
2023-03-31T18:15:10.782Z,7.13
2023-03-31T18:17:38.876Z,7.70
2023-03-31T18:20:07.887Z,6.13
2023-03-31T18:22:37.073Z,6.97
2023-03-31T18:25:05.413Z,3.03
2023-03-31T18:27:33.393Z,3.60
2023-03-31T18:30:01.540Z,2.80
2023-03-31T18:32:29.468Z,3.20
2023-03-31T18:34:58.132Z,3.97
2023-03-31T18:37:25.987Z,3.67
2023-03-31T18:39:55.806Z,3.60
2023-03-31T18:42:25.623Z,4.70
2023-03-31T18:44:53.604Z,4.60
2023-03-31T18:47:22.100Z,3.83
2023-03-31T18:49:53.634Z,4.47
2023-03-31T18:52:22.058Z,4.03
2023-03-31T18:54:51.294Z,3.80
2023-03-31T18:57:20.861Z,4.50
2023-03-31T18:59:48.721Z,4.97
2023-03-31T19:02:18.055Z,4.83
2023-03-31T19:04:46.822Z,3.97
2023-03-31T19:07:15.041Z,6.13
2023-03-31T19:09:42.873Z,5.53
2023-03-31T19:12:11.746Z,3.80
2023-03-31T19:14:41.308Z,3.87
2023-03-31T19:17:09.250Z,4.17
2023-03-31T19:19:37.088Z,4.17
2023-03-31T19:22:05.004Z,5.30
2023-03-31T19:24:32.817Z,4.47
2023-03-31T19:27:00.674Z,3.90
2023-03-31T19:29:30.199Z,3.87
2023-03-31T19:31:59.456Z,4.20
2023-03-31T19:34:27.399Z,5.20
2023-03-31T19:36:55.303Z,4.10
2023-03-31T19:39:25.277Z,4.60
2023-03-31T19:41:53.127Z,4.37
2023-03-31T19:44:21.274Z,5.27
2023-03-31T19:46:49.074Z,5.33
2023-03-31T19:49:18.782Z,3.80
2023-03-31T19:51:46.677Z,4.90
2023-03-31T19:54:14.525Z,4.10
2023-03-31T19:56:42.433Z,4.90
2023-03-31T19:59:10.563Z,5.23
2023-03-31T20:01:38.656Z,5.47
2023-03-31T20:04:06.696Z,4.83
2023-03-31T20:06:36.935Z,5.40
2023-03-31T20:09:06.252Z,5.67
2023-03-31T20:11:34.457Z,5.90
2023-03-31T20:14:03.340Z,5.93
2023-03-31T20:16:32.300Z,5.50
2023-03-31T20:19:03.958Z,6.60
2023-03-31T20:21:33.508Z,5.30
2023-03-31T20:24:02.826Z,6.67
2023-03-31T20:26:32.431Z,6.10
2023-03-31T20:29:02.776Z,6.10
2023-03-31T20:31:32.466Z,7.43
2023-03-31T20:34:00.611Z,5.80
2023-03-31T20:36:29.676Z,7.73
2023-03-31T20:38:57.709Z,9.30
2023-03-31T20:41:29.628Z,6.60
2023-03-31T20:43:58.089Z,10.53
2023-03-31T20:46:26.014Z,7.93
2023-03-31T20:48:56.456Z,7.33
2023-03-31T20:51:27.449Z,8.03
2023-03-31T20:53:56.438Z,8.70
2023-03-31T20:56:28.096Z,11.40
2023-03-31T20:58:58.774Z,8.70
2023-03-31T21:01:27.819Z,7.60
2023-03-31T21:03:58.933Z,7.83
2023-03-31T21:06:28.560Z,8.77
2023-03-31T21:08:57.714Z,9.97
2023-03-31T21:11:27.525Z,8.60
2023-03-31T21:13:55.645Z,9.80
2023-03-31T21:16:25.208Z,8.87
2023-03-31T21:18:54.724Z,9.37
2023-03-31T21:21:24.445Z,8.10
2023-03-31T21:23:52.556Z,9.80
2023-03-31T21:26:21.753Z,7.63
2023-03-31T21:28:54.039Z,10.23
2023-03-31T21:31:23.934Z,9.63
2023-03-31T21:33:53.099Z,10.13
2023-03-31T21:36:23.124Z,10.03
2023-03-31T21:38:53.352Z,11.47
2023-03-31T21:41:23.910Z,10.07
2023-03-31T21:43:53.738Z,9.80
2023-03-31T21:46:23.914Z,10.17
2023-03-31T21:48:52.031Z,7.93
2023-03-31T21:51:21.929Z,9.70
2023-03-31T21:53:51.367Z,9.30
2023-03-31T21:56:19.286Z,9.23
2023-03-31T21:58:47.335Z,10.97
2023-03-31T22:01:16.608Z,11.47
2023-03-31T22:03:44.876Z,10.43
2023-03-31T22:06:13.157Z,9.90
2023-03-31T22:08:41.735Z,13.47
2023-03-31T22:11:11.318Z,11.47
2023-03-31T22:13:39.597Z,11.83
2023-03-31T22:16:17.936Z,9.47
2023-03-31T22:18:46.979Z,10.07
2023-03-31T22:21:18.057Z,11.30
2023-03-31T22:23:46.298Z,10.80
2023-03-31T22:26:14.667Z,14.47
2023-03-31T22:28:42.604Z,9.97
2023-03-31T22:31:10.549Z,11.70
2023-03-31T22:33:39.808Z,10.93
2023-03-31T22:36:08.328Z,10.10
2023-03-31T22:38:36.375Z,10.90
2023-03-31T22:41:04.706Z,11.90
2023-03-31T22:43:33.588Z,12.90
2023-03-31T22:46:04.241Z,11.33
2023-03-31T22:48:32.143Z,12.60
2023-03-31T22:51:04.387Z,12.20
2023-03-31T22:53:32.977Z,12.60
2023-03-31T22:56:06.100Z,10.80
2023-03-31T22:58:34.859Z,12.33
2023-03-31T23:01:03.085Z,13.53
2023-03-31T23:03:31.196Z,12.17
2023-03-31T23:06:04.933Z,11.03
2023-03-31T23:08:33.326Z,12.70
2023-03-31T23:11:01.764Z,15.27
2023-03-31T23:13:30.690Z,12.03
2023-03-31T23:16:04.333Z,10.30
2023-03-31T23:18:32.369Z,11.13
2023-03-31T23:21:01.124Z,13.43
2023-03-31T23:23:30.493Z,14.17
2023-03-31T23:26:01.659Z,14.70
2023-03-31T23:28:29.665Z,12.70
2023-03-31T23:30:57.825Z,14.00
2023-03-31T23:33:26.198Z,13.83
2023-03-31T23:35:58.858Z,12.97
2023-03-31T23:38:27.594Z,14.33
2023-03-31T23:40:56.962Z,12.80
2023-03-31T23:43:25.165Z,13.47
2023-03-31T23:45:53.182Z,13.03
2023-03-31T23:48:21.980Z,14.13
2023-03-31T23:50:49.784Z,13.50
2023-03-31T23:53:17.709Z,15.43
2023-03-31T23:55:53.021Z,14.17
2023-03-31T23:58:22.226Z,14.60
